Terminal Aerodrome Forecast
Issued by NWS Memphis, TN

Home | Current Version | Previous Version | Text Only | Print | Product List | Glossary On
Versions: 1 2 3 4 5 6 7 8 9 10 11 12 13 14 15 16 17
000
FTUS44 KMEG 271731
TAFMKL
TAF
KMKL 271731Z 2718/2818 26007KT P6SM BKN017
     FM272000 29007KT P6SM SCT025
     FM280000 VRB02KT P6SM SCT250
     FM281500 15008KT P6SM OVC015
     FM281700 17010G18KT P6SM BKN025=

USA.gov is the U.S. government's official web portal to all federal, state and local government web resources and services.